createdAt,value
2022-08-21T00:02:23.910Z,1.50
2022-08-21T00:04:56.523Z,1.73
2022-08-21T00:07:24.122Z,1.30
2022-08-21T00:09:52.544Z,1.73
2022-08-21T00:12:19.153Z,1.88
2022-08-21T00:14:45.719Z,1.55
2022-08-21T00:17:13.298Z,1.95
2022-08-21T00:19:40.124Z,1.67
2022-08-21T00:22:06.652Z,1.70
2022-08-21T00:24:33.197Z,1.60
2022-08-21T00:26:59.813Z,1.70
2022-08-21T00:29:26.460Z,1.42
2022-08-21T00:31:52.931Z,1.25
2022-08-21T00:34:19.497Z,1.45
2022-08-21T00:36:46.039Z,1.67
2022-08-21T00:39:12.594Z,1.58
2022-08-21T00:41:40.441Z,1.38
2022-08-21T00:44:09.592Z,1.52
2022-08-21T00:46:37.420Z,1.45
2022-08-21T00:49:06.125Z,1.83
2022-08-21T00:51:48.910Z,1.73
2022-08-21T00:54:18.618Z,1.38
2022-08-21T00:56:48.961Z,1.77
2022-08-21T00:59:17.767Z,1.08
2022-08-21T01:01:44.490Z,1.30
2022-08-21T01:04:11.013Z,1.48
2022-08-21T01:06:37.471Z,1.40
2022-08-21T01:09:04.187Z,1.58
2022-08-21T01:11:31.991Z,1.63
2022-08-21T01:13:58.929Z,1.63
2022-08-21T01:16:25.795Z,1.70
2022-08-21T01:18:52.764Z,1.70
2022-08-21T01:21:28.204Z,1.48
2022-08-21T01:23:57.364Z,1.58
2022-08-21T01:26:33.953Z,1.42
2022-08-21T01:29:16.345Z,1.55
2022-08-21T01:31:43.245Z,1.30
2022-08-21T01:34:13.318Z,1.20
2022-08-21T01:36:40.318Z,1.30
2022-08-21T01:39:07.038Z,1.70
2022-08-21T01:41:33.576Z,1.67
2022-08-21T01:44:00.440Z,1.90
2022-08-21T01:46:27.289Z,1.40
2022-08-21T01:48:53.885Z,1.90
2022-08-21T01:51:20.551Z,1.55
2022-08-21T01:53:47.125Z,1.45
2022-08-21T01:56:15.769Z,1.55
2022-08-21T01:58:44.087Z,1.40
2022-08-21T02:01:11.284Z,1.40
2022-08-21T02:03:38.773Z,1.50
2022-08-21T02:06:07.811Z,1.20
2022-08-21T02:08:34.986Z,1.52
2022-08-21T02:11:01.762Z,1.52
2022-08-21T02:13:28.388Z,1.60
2022-08-21T02:15:55.029Z,1.63
2022-08-21T02:18:21.587Z,1.70
2022-08-21T02:20:55.675Z,1.98
2022-08-21T02:23:26.543Z,1.80
2022-08-21T02:25:55.746Z,1.70
2022-08-21T02:28:22.546Z,1.90
2022-08-21T02:30:49.874Z,1.80
2022-08-21T02:33:16.903Z,1.67
2022-08-21T02:35:46.339Z,1.55
2022-08-21T02:38:16.318Z,1.30
2022-08-21T02:40:48.201Z,1.70
2022-08-21T02:43:19.583Z,1.63
2022-08-21T02:45:46.811Z,1.80
2022-08-21T02:48:18.260Z,1.40
2022-08-21T02:50:52.796Z,1.80
2022-08-21T02:53:19.987Z,1.65
2022-08-21T02:55:48.664Z,2.00
2022-08-21T02:58:19.590Z,1.60
2022-08-21T03:00:46.653Z,1.55
2022-08-21T03:03:15.411Z,1.50
2022-08-21T03:05:43.938Z,1.63
2022-08-21T03:08:13.525Z,1.45
2022-08-21T03:10:43.468Z,1.35
2022-08-21T03:13:10.716Z,1.70
2022-08-21T03:15:37.960Z,1.40
2022-08-21T03:18:06.461Z,1.30
2022-08-21T03:20:34.673Z,1.30
2022-08-21T03:23:02.457Z,1.48
2022-08-21T03:25:39.563Z,1.13
2022-08-21T03:28:09.285Z,1.50
2022-08-21T03:30:39.962Z,1.20
2022-08-21T03:33:06.570Z,1.23
2022-08-21T03:35:33.112Z,1.25
2022-08-21T03:37:59.689Z,1.35
2022-08-21T03:40:26.956Z,1.27
2022-08-21T03:42:53.733Z,1.50
2022-08-21T03:45:21.049Z,1.50
2022-08-21T03:47:58.211Z,1.23
2022-08-21T03:50:27.206Z,1.70
2022-08-21T03:52:53.944Z,1.75
2022-08-21T03:55:20.609Z,1.73
2022-08-21T03:57:47.336Z,1.80
2022-08-21T04:00:16.105Z,1.17
2022-08-21T04:02:44.572Z,1.38
2022-08-21T04:05:12.846Z,1.45
2022-08-21T04:07:39.740Z,1.38
2022-08-21T04:10:07.939Z,1.63
2022-08-21T04:12:34.501Z,1.70
2022-08-21T04:15:02.767Z,1.35
2022-08-21T04:17:29.290Z,1.50
2022-08-21T04:19:56.028Z,1.77
2022-08-21T04:22:23.265Z,1.65
2022-08-21T04:24:50.852Z,1.48
2022-08-21T04:27:19.440Z,1.55
2022-08-21T04:29:46.273Z,1.50
2022-08-21T04:32:12.759Z,1.50
2022-08-21T04:34:39.281Z,1.65
2022-08-21T04:37:05.795Z,1.40
2022-08-21T04:39:32.407Z,1.58
2022-08-21T04:41:58.900Z,1.50
2022-08-21T04:44:25.731Z,1.55
2022-08-21T04:46:52.216Z,1.50
2022-08-21T04:49:18.768Z,1.50
2022-08-21T04:51:45.317Z,1.30
2022-08-21T04:54:17.267Z,1.33
2022-08-21T04:56:49.747Z,1.42
2022-08-21T04:59:22.068Z,1.27
2022-08-21T05:01:49.205Z,1.52
2022-08-21T05:04:19.264Z,1.50
2022-08-21T05:06:48.992Z,1.52
2022-08-21T05:09:20.420Z,1.38
2022-08-21T05:11:47.879Z,1.25
2022-08-21T05:14:14.502Z,1.50
2022-08-21T05:16:42.688Z,1.55
2022-08-21T05:19:09.603Z,1.55
2022-08-21T05:21:38.445Z,1.63
2022-08-21T05:24:05.131Z,1.60
2022-08-21T05:26:31.716Z,1.50
2022-08-21T05:28:59.216Z,1.70
2022-08-21T05:31:26.090Z,2.00
2022-08-21T05:33:52.588Z,1.80
2022-08-21T05:36:23.336Z,1.40
2022-08-21T05:38:50.093Z,1.40
2022-08-21T05:41:16.750Z,2.08
2022-08-21T05:43:43.434Z,1.77
2022-08-21T05:46:10.153Z,1.63
2022-08-21T05:48:37.529Z,1.60
2022-08-21T05:51:10.696Z,1.88
2022-08-21T05:53:38.228Z,1.77
2022-08-21T05:56:05.148Z,1.83
2022-08-21T05:58:33.742Z,1.70
2022-08-21T06:01:01.673Z,1.70
2022-08-21T06:03:30.958Z,1.60
2022-08-21T06:05:57.701Z,1.52
2022-08-21T06:08:25.119Z,1.60
2022-08-21T06:10:53.513Z,1.77
2022-08-21T06:13:21.377Z,1.55
2022-08-21T06:15:48.302Z,1.40
2022-08-21T06:18:15.040Z,1.48
2022-08-21T06:20:42.275Z,1.38
2022-08-21T06:23:09.011Z,1.63
2022-08-21T06:25:36.263Z,1.50
2022-08-21T06:28:08.872Z,1.50
2022-08-21T06:30:37.711Z,1.38
2022-08-21T06:33:04.667Z,1.42
2022-08-21T06:35:31.250Z,1.80
2022-08-21T06:37:58.429Z,1.52
2022-08-21T06:40:26.742Z,1.52
2022-08-21T06:42:53.511Z,1.50
2022-08-21T06:45:20.305Z,1.60
2022-08-21T06:47:46.806Z,1.50
2022-08-21T06:50:13.614Z,1.20
2022-08-21T06:52:40.429Z,1.85
2022-08-21T06:55:09.362Z,1.45
2022-08-21T06:57:36.509Z,1.50
2022-08-21T07:00:07.455Z,1.67
2022-08-21T07:02:34.683Z,1.70
2022-08-21T07:05:01.633Z,1.88
2022-08-21T07:07:45.606Z,1.60
2022-08-21T07:10:22.435Z,1.70
2022-08-21T07:13:00.627Z,1.45
2022-08-21T07:15:31.152Z,1.60
2022-08-21T07:17:59.765Z,1.50
2022-08-21T07:20:30.181Z,1.50
2022-08-21T07:23:00.511Z,1.40
2022-08-21T07:25:27.576Z,1.33
2022-08-21T07:27:54.594Z,1.40
2022-08-21T07:30:21.780Z,1.40
2022-08-21T07:32:50.303Z,1.30
2022-08-21T07:35:18.502Z,1.13
2022-08-21T07:37:45.230Z,1.20
2022-08-21T07:40:12.212Z,1.27
2022-08-21T07:42:47.085Z,1.35
2022-08-21T07:45:14.976Z,1.42
2022-08-21T07:47:42.946Z,1.27
2022-08-21T07:50:12.218Z,1.40
2022-08-21T07:52:39.784Z,1.20
2022-08-21T07:55:07.254Z,1.10
2022-08-21T07:57:34.366Z,1.27
2022-08-21T08:00:00.923Z,1.75
2022-08-21T08:02:30.311Z,1.38
2022-08-21T08:05:08.823Z,1.05
2022-08-21T08:07:35.400Z,1.17
2022-08-21T08:10:03.501Z,1.15
2022-08-21T08:12:30.598Z,1.25
2022-08-21T08:15:01.672Z,1.27
2022-08-21T08:17:28.545Z,1.30
2022-08-21T08:19:55.281Z,1.40
2022-08-21T08:22:26.944Z,1.13
2022-08-21T08:24:54.420Z,1.38
2022-08-21T08:27:21.588Z,1.35
2022-08-21T08:29:49.000Z,1.58
2022-08-21T08:32:16.127Z,1.38
2022-08-21T08:34:42.672Z,1.30
2022-08-21T08:37:10.827Z,1.40
2022-08-21T08:39:38.026Z,1.70
2022-08-21T08:42:33.709Z,1.30
2022-08-21T08:45:18.921Z,1.52
2022-08-21T08:47:50.143Z,1.92
2022-08-21T08:50:22.458Z,1.60
2022-08-21T08:52:55.152Z,1.60
2022-08-21T08:55:41.092Z,2.03
2022-08-21T08:58:09.932Z,1.55
2022-08-21T09:00:36.460Z,1.45
2022-08-21T09:03:04.341Z,1.70
2022-08-21T09:05:46.517Z,1.80
2022-08-21T09:08:23.457Z,1.98
2022-08-21T09:10:58.537Z,1.80
2022-08-21T09:13:46.683Z,2.30
2022-08-21T09:16:20.641Z,2.28
2022-08-21T09:19:25.114Z,1.88
2022-08-21T09:22:02.973Z,2.38
2022-08-21T09:25:00.536Z,2.30
2022-08-21T09:27:27.062Z,2.80
2022-08-21T09:29:55.534Z,2.25
2022-08-21T09:32:37.024Z,2.10
2022-08-21T09:35:14.918Z,2.45
2022-08-21T09:37:53.545Z,2.30
2022-08-21T09:40:24.345Z,2.40
2022-08-21T09:43:04.997Z,2.45
2022-08-21T09:45:34.063Z,2.63
2022-08-21T09:48:26.270Z,2.20
2022-08-21T09:50:55.080Z,2.42
2022-08-21T09:53:25.366Z,2.70
2022-08-21T09:56:21.539Z,2.38
2022-08-21T09:58:52.785Z,2.47
2022-08-21T10:01:23.486Z,2.70
2022-08-21T10:04:06.079Z,2.70
2022-08-21T10:06:32.896Z,2.30
2022-08-21T10:09:20.943Z,2.58
2022-08-21T10:12:11.127Z,2.38
2022-08-21T10:14:40.709Z,2.40
2022-08-21T10:17:48.128Z,2.35
2022-08-21T10:20:23.165Z,2.05
2022-08-21T10:23:12.539Z,2.22
2022-08-21T10:25:56.369Z,1.85
2022-08-21T10:29:06.036Z,2.00
2022-08-21T10:31:58.612Z,1.63
2022-08-21T10:34:57.013Z,1.60
2022-08-21T10:37:42.215Z,1.60
2022-08-21T10:40:22.911Z,1.65
2022-08-21T10:43:08.107Z,1.48
2022-08-21T10:45:43.112Z,1.35
2022-08-21T10:48:21.006Z,1.50
2022-08-21T10:51:10.628Z,1.67
2022-08-21T10:54:00.371Z,1.88
2022-08-21T10:56:32.114Z,1.75
2022-08-21T10:59:20.815Z,2.40
2022-08-21T11:02:10.595Z,2.10
2022-08-21T11:05:02.668Z,1.88
2022-08-21T11:07:54.324Z,1.80
2022-08-21T11:10:30.646Z,2.03
2022-08-21T11:13:02.985Z,1.67
2022-08-21T11:15:44.793Z,1.70
2022-08-21T11:18:22.268Z,2.22
2022-08-21T11:21:05.500Z,1.98
2022-08-21T11:23:42.301Z,1.70
2022-08-21T11:26:20.433Z,2.03
2022-08-21T11:28:59.118Z,1.52
2022-08-21T11:31:41.363Z,1.83
2022-08-21T11:34:19.892Z,2.10
2022-08-21T11:36:58.941Z,1.63
2022-08-21T11:39:56.135Z,2.15
2022-08-21T11:42:34.018Z,1.92
2022-08-21T11:45:15.085Z,2.00
2022-08-21T11:48:08.447Z,1.85
2022-08-21T11:50:39.580Z,2.15
2022-08-21T11:53:13.150Z,1.73
2022-08-21T11:55:43.475Z,1.83
2022-08-21T11:58:23.277Z,1.50
2022-08-21T12:01:08.540Z,1.55
2022-08-21T12:03:38.977Z,1.48
2022-08-21T12:06:12.886Z,1.65
2022-08-21T12:08:42.735Z,1.42
2022-08-21T12:11:18.195Z,1.50
2022-08-21T12:14:18.591Z,1.40
2022-08-21T12:16:48.294Z,1.40
2022-08-21T12:19:28.735Z,1.63
2022-08-21T12:22:07.762Z,1.13
2022-08-21T12:24:39.294Z,1.58
2022-08-21T12:27:20.341Z,1.40
2022-08-21T12:29:49.964Z,1.40
2022-08-21T12:32:16.424Z,1.60
2022-08-21T12:34:49.454Z,1.27
2022-08-21T12:37:30.850Z,1.30
2022-08-21T12:40:01.875Z,1.20
2022-08-21T12:42:42.267Z,1.25
2022-08-21T12:45:42.779Z,1.05
2022-08-21T12:48:19.947Z,1.40
2022-08-21T12:50:54.764Z,1.23
2022-08-21T12:53:41.437Z,1.30
2022-08-21T12:56:14.245Z,1.08
2022-08-21T12:58:45.856Z,1.20
2022-08-21T13:01:20.524Z,0.70
2022-08-21T13:03:47.646Z,1.10
2022-08-21T13:06:37.428Z,1.20
2022-08-21T13:09:12.911Z,1.17
2022-08-21T13:11:42.107Z,0.90
2022-08-21T13:14:20.725Z,0.73
2022-08-21T13:16:48.633Z,0.90
2022-08-21T13:19:23.935Z,1.00
2022-08-21T13:21:52.024Z,0.98
2022-08-21T13:27:31.060Z,1.25
2022-08-21T13:30:07.119Z,1.10
2022-08-21T13:32:38.662Z,0.90
2022-08-21T13:35:15.513Z,0.93
2022-08-21T13:37:44.184Z,1.05
2022-08-21T13:40:14.460Z,1.25
2022-08-21T13:42:44.079Z,1.30
2022-08-21T13:45:17.021Z,1.27
2022-08-21T13:47:47.103Z,0.95
2022-08-21T13:50:16.033Z,1.17
2022-08-21T13:52:56.108Z,0.98
2022-08-21T13:55:26.443Z,1.05
2022-08-21T13:58:04.127Z,0.85
2022-08-21T14:00:36.124Z,0.75
2022-08-21T14:03:42.673Z,0.90
2022-08-21T14:06:22.461Z,1.00
2022-08-21T14:08:54.741Z,0.90
2022-08-21T14:11:22.504Z,0.88
2022-08-21T14:13:56.432Z,1.00
2022-08-21T14:16:47.518Z,0.90
2022-08-21T14:19:27.520Z,1.05
2022-08-21T14:21:55.567Z,0.85
2022-08-21T14:24:25.338Z,0.90
2022-08-21T14:26:59.413Z,1.20
2022-08-21T14:29:28.646Z,0.90
2022-08-21T14:32:01.275Z,0.85
2022-08-21T14:34:35.773Z,0.85
2022-08-21T14:37:02.977Z,0.95
2022-08-21T14:39:29.466Z,1.20
2022-08-21T14:41:58.250Z,0.80
2022-08-21T14:44:24.778Z,1.08
2022-08-21T14:46:56.143Z,0.93
2022-08-21T14:49:28.651Z,0.75
2022-08-21T14:51:58.702Z,0.90
2022-08-21T14:54:32.454Z,0.93
2022-08-21T14:57:06.737Z,0.60
2022-08-21T14:59:34.055Z,1.20
2022-08-21T15:02:01.282Z,1.00
2022-08-21T15:04:28.136Z,0.90
2022-08-21T15:06:54.655Z,0.88
2022-08-21T15:09:21.202Z,0.85
2022-08-21T15:11:47.992Z,1.00
2022-08-21T15:14:21.198Z,1.00
2022-08-21T15:16:49.306Z,1.08
2022-08-21T15:19:15.887Z,0.90
2022-08-21T15:21:42.467Z,0.95
2022-08-21T15:24:09.111Z,1.00
2022-08-21T15:26:37.026Z,1.05
2022-08-21T15:29:07.414Z,0.90
2022-08-21T15:31:34.572Z,0.90
2022-08-21T15:34:01.060Z,1.02
2022-08-21T15:36:27.723Z,0.90
2022-08-21T15:38:54.537Z,0.80
2022-08-21T15:41:21.198Z,0.73
2022-08-21T15:43:51.082Z,1.00
2022-08-21T15:46:20.146Z,1.10
2022-08-21T15:48:47.511Z,1.20
2022-08-21T15:51:15.434Z,0.80
2022-08-21T15:53:42.995Z,0.90
2022-08-21T15:56:24.788Z,0.90
2022-08-21T15:58:53.883Z,1.17
2022-08-21T16:01:22.339Z,0.80
2022-08-21T16:03:52.076Z,0.90
2022-08-21T16:06:18.902Z,0.90
2022-08-21T16:09:05.330Z,1.05
2022-08-21T16:11:31.937Z,1.00
2022-08-21T16:13:58.694Z,0.70
2022-08-21T16:16:25.785Z,1.00
2022-08-21T16:18:53.176Z,0.77
2022-08-21T16:21:21.549Z,0.73
2022-08-21T16:23:49.615Z,0.98
2022-08-21T16:26:18.540Z,1.10
2022-08-21T16:28:47.244Z,1.08
2022-08-21T16:31:15.510Z,0.70
2022-08-21T16:33:46.207Z,0.95
2022-08-21T16:36:13.722Z,0.70
2022-08-21T16:38:41.897Z,0.93
2022-08-21T16:41:12.641Z,0.88
2022-08-21T16:43:41.833Z,0.70
2022-08-21T16:46:11.386Z,0.90
2022-08-21T16:48:38.751Z,0.70
2022-08-21T16:51:05.836Z,0.90
2022-08-21T16:53:33.145Z,0.88
2022-08-21T16:56:00.006Z,1.00
2022-08-21T16:58:30.291Z,1.00
2022-08-21T17:00:58.693Z,0.77
2022-08-21T17:03:40.780Z,1.00
2022-08-21T17:06:09.051Z,0.73
2022-08-21T17:08:36.133Z,0.70
2022-08-21T17:11:03.246Z,0.90
2022-08-21T17:13:30.491Z,0.90
2022-08-21T17:15:57.314Z,0.90
2022-08-21T17:18:25.262Z,0.90
2022-08-21T17:20:52.551Z,0.80
2022-08-21T17:23:19.759Z,0.70
2022-08-21T17:25:51.206Z,0.80
2022-08-21T17:28:23.588Z,0.85
2022-08-21T17:30:52.441Z,0.85
2022-08-21T17:33:19.823Z,1.15
2022-08-21T17:35:47.330Z,1.00
2022-08-21T17:38:14.923Z,0.90
2022-08-21T17:40:42.040Z,0.80
2022-08-21T17:43:13.161Z,0.98
2022-08-21T17:45:40.931Z,1.25
2022-08-21T17:48:07.568Z,1.17
2022-08-21T17:50:34.332Z,1.15
2022-08-21T17:53:00.889Z,1.23
2022-08-21T17:55:29.498Z,1.55
2022-08-21T17:57:57.224Z,0.93
2022-08-21T18:00:25.960Z,1.15
2022-08-21T18:03:01.859Z,1.17
2022-08-21T18:05:28.823Z,1.27
2022-08-21T18:07:55.663Z,1.45
2022-08-21T18:10:22.484Z,1.27
2022-08-21T18:12:49.451Z,1.08
2022-08-21T18:15:20.096Z,1.25
2022-08-21T18:17:50.768Z,1.40
2022-08-21T18:20:21.969Z,1.40
2022-08-21T18:22:48.556Z,1.30
2022-08-21T18:25:15.608Z,1.50
2022-08-21T18:27:45.929Z,1.25
2022-08-21T18:30:16.798Z,1.20
2022-08-21T18:32:44.384Z,1.58
2022-08-21T18:35:12.841Z,1.48
2022-08-21T18:37:39.341Z,1.30
2022-08-21T18:40:09.100Z,1.48
2022-08-21T18:42:41.461Z,1.05
2022-08-21T18:45:18.268Z,1.20
2022-08-21T18:47:48.867Z,1.02
2022-08-21T18:50:19.205Z,1.50
2022-08-21T18:53:04.071Z,0.88
2022-08-21T18:55:35.101Z,1.50
2022-08-21T18:58:02.270Z,1.15
2022-08-21T19:00:33.252Z,0.98
2022-08-21T19:03:01.015Z,1.40
2022-08-21T19:05:27.873Z,1.50
2022-08-21T19:07:55.246Z,1.65
2022-08-21T19:10:27.575Z,1.35
2022-08-21T19:13:12.227Z,1.45
2022-08-21T19:15:41.857Z,1.65
2022-08-21T19:18:12.303Z,1.20
2022-08-21T19:20:42.182Z,1.60
2022-08-21T19:23:12.678Z,1.50
2022-08-21T19:25:42.478Z,1.58
2022-08-21T19:28:12.824Z,1.27
2022-08-21T19:30:45.757Z,1.55
2022-08-21T19:33:23.138Z,1.17
2022-08-21T19:35:51.035Z,1.35
2022-08-21T19:38:19.656Z,1.27
2022-08-21T19:40:46.243Z,1.40
2022-08-21T19:43:13.197Z,1.50
2022-08-21T19:45:39.840Z,1.60
2022-08-21T19:48:06.852Z,1.52
2022-08-21T19:50:33.924Z,1.45
2022-08-21T19:53:01.074Z,1.42
2022-08-21T19:55:27.864Z,1.60
2022-08-21T19:57:55.725Z,1.77
2022-08-21T20:00:22.461Z,1.55
2022-08-21T20:02:51.141Z,1.50
2022-08-21T20:05:18.360Z,1.50
2022-08-21T20:07:45.359Z,1.40
2022-08-21T20:10:13.286Z,1.55
2022-08-21T20:12:41.740Z,1.48
2022-08-21T20:15:09.404Z,1.60
2022-08-21T20:17:36.370Z,1.60
2022-08-21T20:20:04.935Z,1.50
2022-08-21T20:22:31.427Z,1.50
2022-08-21T20:24:58.665Z,1.63
2022-08-21T20:27:27.535Z,1.63
2022-08-21T20:29:54.425Z,1.50
2022-08-21T20:32:22.428Z,1.60
2022-08-21T20:34:52.088Z,1.83
2022-08-21T20:37:37.401Z,1.65
2022-08-21T20:40:10.871Z,1.42
2022-08-21T20:42:45.366Z,1.83
2022-08-21T20:45:17.440Z,1.70
2022-08-21T20:47:45.568Z,1.45
2022-08-21T20:50:17.841Z,1.88
2022-08-21T20:52:49.647Z,1.45
2022-08-21T20:55:29.327Z,1.80
2022-08-21T20:58:35.114Z,2.10
2022-08-21T21:01:07.056Z,1.63
2022-08-21T21:03:42.357Z,1.63
2022-08-21T21:06:28.392Z,1.42
2022-08-21T21:09:19.297Z,1.38
2022-08-21T21:11:54.949Z,1.52
2022-08-21T21:14:37.245Z,1.70
2022-08-21T21:17:13.730Z,2.05
2022-08-21T21:19:51.504Z,1.65
2022-08-21T21:22:26.692Z,1.90
2022-08-21T21:25:04.101Z,1.42
2022-08-21T21:27:39.026Z,1.55
2022-08-21T21:30:14.413Z,1.88
2022-08-21T21:32:41.681Z,1.45
2022-08-21T21:35:10.732Z,1.48
2022-08-21T21:37:50.349Z,1.77
2022-08-21T21:40:28.853Z,1.40
2022-08-21T21:43:31.674Z,1.77
2022-08-21T21:46:24.204Z,1.80
2022-08-21T21:49:11.520Z,1.75
2022-08-21T21:52:18.349Z,1.90
2022-08-21T21:55:03.984Z,1.70
2022-08-21T21:57:49.417Z,2.08
2022-08-21T22:00:29.168Z,1.67
2022-08-21T22:03:19.981Z,1.65
2022-08-21T22:06:04.377Z,2.00
2022-08-21T22:09:24.528Z,1.80
2022-08-21T22:12:03.203Z,1.73
2022-08-21T22:14:43.938Z,1.67
2022-08-21T22:17:30.457Z,1.50
2022-08-21T22:20:00.906Z,1.83
2022-08-21T22:22:32.391Z,1.65
2022-08-21T22:25:15.433Z,1.65
2022-08-21T22:27:42.509Z,1.98
2022-08-21T22:30:16.072Z,2.42
2022-08-21T22:35:36.103Z,2.22
2022-08-21T22:38:19.466Z,1.80
2022-08-21T22:40:49.446Z,1.63
2022-08-21T22:43:21.136Z,2.25
2022-08-21T22:46:01.439Z,2.00
2022-08-21T22:48:32.532Z,1.73
2022-08-21T22:51:11.392Z,1.90
2022-08-21T22:53:42.549Z,2.00
2022-08-21T22:56:26.193Z,1.98
2022-08-21T22:58:57.614Z,2.00
2022-08-21T23:01:24.016Z,1.85
2022-08-21T23:03:54.371Z,1.85
2022-08-21T23:06:44.777Z,1.63
2022-08-21T23:09:30.385Z,1.90
2022-08-21T23:12:21.092Z,1.95
2022-08-21T23:14:54.581Z,2.17
2022-08-21T23:17:37.888Z,3.10
2022-08-21T23:20:15.136Z,2.55
2022-08-21T23:22:45.668Z,2.47
2022-08-21T23:25:21.530Z,1.70
2022-08-21T23:28:01.497Z,2.08
2022-08-21T23:30:46.740Z,2.00
2022-08-21T23:33:42.342Z,2.20
2022-08-21T23:37:05.850Z,2.05
2022-08-21T23:39:38.386Z,2.30
2022-08-21T23:42:15.552Z,2.15
2022-08-21T23:48:53.308Z,2.45
2022-08-21T23:51:27.447Z,2.30
2022-08-21T23:54:33.993Z,2.13
2022-08-21T23:57:09.190Z,2.28
2022-08-21T23:59:54.063Z,2.00
